Time;durP1;ratioP1;P1;durP2;ratioP2;P2;SDS_P1;SDS_P2;PMS_P1;PMS_P2;Temp;Humidity;BMP_temperature;BMP_pressure;BME280_temperature;BME280_humidity;BME280_pressure;Samples;Min_cycle;Max_cycle;Signal;HPM_P1;HPM_P2
2023/03/27 00:01:56;;;;;;;;;9.80;8.00;;;;;13.94;30.33;97723.03;5089057;28;8879;-72
2023/03/27 00:04:27;;;;;;;;;7.80;7.80;;;;;13.83;30.74;97713.16;5091190;28;8840;-71
2023/03/27 00:06:56;;;;;;;;;10.00;7.80;;;;;13.84;30.65;97722.75;5093487;28;8867;-74
2023/03/27 00:09:25;;;;;;;;;8.00;7.80;;;;;13.67;30.98;97711.44;5106609;28;8872;-74
2023/03/27 00:11:57;;;;;;;;;9.60;9.60;;;;;13.87;30.68;97712.84;5084469;28;8843;-71
2023/03/27 00:14:29;;;;;;;;;7.60;7.60;;;;;13.80;30.92;97705.38;5034392;28;8943;-74
2023/03/27 00:16:58;;;;;;;;;10.40;10.40;;;;;14.02;30.54;97707.53;5069393;28;8854;-70
2023/03/27 00:19:28;;;;;;;;;9.80;9.80;;;;;13.77;30.73;97697.66;5071088;28;8856;-71
2023/03/27 00:21:56;;;;;;;;;5.20;5.20;;;;;13.66;31.00;97699.19;5088478;28;8940;-75
2023/03/27 00:24:25;;;;;;;;;8.20;8.20;;;;;13.74;31.01;97692.59;5088648;28;8832;-71
2023/03/27 00:26:55;;;;;;;;;9.20;8.40;;;;;13.79;30.73;97688.72;5088167;28;8828;-74
2023/03/27 00:29:24;;;;;;;;;9.40;8.40;;;;;13.70;30.92;97687.50;5088376;28;8839;-71
2023/03/27 00:31:54;;;;;;;;;12.40;12.00;;;;;13.89;30.72;97673.16;5089354;28;8902;-71
2023/03/27 00:34:23;;;;;;;;;5.20;5.20;;;;;13.77;30.90;97668.59;5088187;28;9671;-71
2023/03/27 00:36:52;;;;;;;;;8.80;8.20;;;;;13.95;30.73;97656.88;5088510;28;8860;-74
2023/03/27 00:39:22;;;;;;;;;9.80;9.80;;;;;13.98;30.62;97651.41;5071288;28;8886;-72
2023/03/27 00:41:54;;;;;;;;;8.00;8.00;;;;;14.16;30.27;97649.34;5087695;28;10404;-71
2023/03/27 00:44:26;;;;;;;;;11.40;8.60;;;;;13.82;30.92;97640.97;5067670;28;8839;-72
2023/03/27 00:46:57;;;;;;;;;12.00;11.60;;;;;14.16;30.39;97638.78;5088990;28;9592;-72
2023/03/27 00:49:30;;;;;;;;;7.00;7.00;;;;;13.65;31.00;97630.63;5087804;28;8977;-76
2023/03/27 00:52:02;;;;;;;;;10.20;8.00;;;;;14.02;30.50;97623.00;5036647;28;8851;-72
2023/03/27 00:54:38;;;;;;;;;8.40;7.00;;;;;13.96;30.45;97618.09;5071003;28;8859;-71
2023/03/27 00:57:13;;;;;;;;;8.80;7.60;;;;;13.93;30.62;97615.69;5104310;28;8847;-73
2023/03/27 00:59:45;;;;;;;;;10.60;9.20;;;;;14.08;30.38;97612.88;5087170;28;8859;-74
2023/03/27 01:02:17;;;;;;;;;6.20;6.20;;;;;13.98;30.55;97611.78;5120203;27;8988;-72
2023/03/27 01:04:47;;;;;;;;;12.40;9.80;;;;;14.24;30.33;97610.06;5087583;28;8856;-71
2023/03/27 01:07:16;;;;;;;;;10.00;10.00;;;;;14.41;29.81;97601.00;5087415;28;8851;-72
2023/03/27 01:09:45;;;;;;;;;12.20;9.80;;;;;14.07;30.20;97608.53;5087170;28;8859;-74
2023/03/27 01:12:29;;;;;;;;;7.60;7.60;;;;;13.68;30.87;97615.44;5088617;28;8885;-70
2023/03/27 01:15:14;;;;;;;;;8.60;7.80;;;;;13.64;31.07;97616.59;5087346;28;8824;-75
2023/03/27 01:17:57;;;;;;;;;8.60;8.00;;;;;13.68;31.07;97618.09;5086907;28;8939;-70
2023/03/27 01:20:58;;;;;;;;;9.40;8.60;;;;;13.67;31.30;97621.66;5068185;28;8931;-71
2023/03/27 01:24:04;;;;;;;;;7.80;7.80;;;;;13.39;31.58;97627.88;5050353;28;8878;-71
2023/03/27 01:27:02;;;;;;;;;6.60;6.60;;;;;13.53;31.84;97636.72;4992739;28;9725;-71
2023/03/27 01:29:48;;;;;;;;;8.60;8.60;;;;;13.30;34.69;97649.56;5025599;28;9034;-71
2023/03/27 01:33:11;;;;;;;;;9.20;8.00;;;;;13.77;35.34;97639.56;5031250;28;8911;-73
2023/03/27 01:36:03;;;;;;;;;8.00;7.20;;;;;14.00;35.12;97619.63;5032400;28;8834;-70
2023/03/27 01:39:25;;;;;;;;;10.80;9.60;;;;;14.26;34.32;97615.22;5028716;28;8873;-76
2023/03/27 01:42:03;;;;;;;;;7.20;7.20;;;;;14.29;34.83;97607.09;5011944;28;8969;-77
2023/03/27 01:44:41;;;;;;;;;6.80;6.80;;;;;14.33;34.26;97579.50;5028702;28;8857;-72
2023/03/27 01:47:33;;;;;;;;;8.00;8.00;;;;;14.41;33.51;97558.72;5028638;28;8887;-75
2023/03/27 01:50:10;;;;;;;;;9.20;7.60;;;;;14.38;33.10;97561.53;5010298;28;8935;-76
2023/03/27 01:52:43;;;;;;;;;8.60;8.60;;;;;14.37;33.26;97548.44;5016992;28;9017;-71
2023/03/27 01:55:20;;;;;;;;;6.40;6.40;;;;;14.44;32.70;97542.63;5028755;28;8871;-75
2023/03/27 01:57:52;;;;;;;;;4.00;4.00;;;;;14.36;32.64;97530.91;5028722;28;8989;-74
2023/03/27 02:00:23;;;;;;;;;5.40;4.20;;;;;14.42;32.74;97511.97;5028446;28;8945;-74
2023/03/27 02:03:10;;;;;;;;;7.40;6.40;;;;;14.24;33.40;97498.22;5011321;28;8853;-73
2023/03/27 02:05:46;;;;;;;;;4.80;4.80;;;;;14.21;33.85;97466.72;5064911;28;8888;-72
2023/03/27 02:08:19;;;;;;;;;7.80;6.00;;;;;14.15;34.04;97449.50;5028495;28;8858;-74
2023/03/27 02:10:55;;;;;;;;;5.20;5.20;;;;;14.13;34.89;97453.19;5028213;28;8888;-72
2023/03/27 02:13:32;;;;;;;;;5.60;5.60;;;;;14.16;34.92;97460.91;5044866;28;8870;-72
2023/03/27 02:16:03;;;;;;;;;5.20;5.20;;;;;14.15;35.34;97470.63;5024724;28;8844;-71
2023/03/27 02:18:36;;;;;;;;;8.60;8.00;;;;;14.07;35.76;97457.09;4992359;28;8860;-74
2023/03/27 02:21:06;;;;;;;;;7.00;5.00;;;;;14.05;36.06;97451.94;5008536;28;8980;-71
2023/03/27 02:23:37;;;;;;;;;7.80;6.80;;;;;13.91;36.32;97448.56;5022848;28;8818;-74
2023/03/27 02:26:11;;;;;;;;;7.20;6.00;;;;;13.92;36.25;97452.88;5028082;28;8850;-72
2023/03/27 02:29:02;;;;;;;;;7.20;7.20;;;;;13.91;36.14;97448.56;5028130;28;9843;-76
2023/03/27 02:31:42;;;;;;;;;8.20;7.40;;;;;13.81;36.27;97451.81;5028153;28;8853;-71
2023/03/27 02:34:49;;;;;;;;;6.40;6.00;;;;;13.80;36.45;97444.81;5047637;28;8834;-73
2023/03/27 02:37:28;;;;;;;;;8.60;6.80;;;;;13.77;36.60;97455.59;4972437;28;8838;-71
2023/03/27 02:40:33;;;;;;;;;6.00;6.00;;;;;13.67;36.89;97457.97;4970185;28;8821;-73
2023/03/27 02:43:36;;;;;;;;;5.80;5.80;;;;;13.72;37.29;97455.03;4985597;28;9718;-71
2023/03/27 02:46:17;;;;;;;;;7.00;6.00;;;;;13.65;37.24;97454.59;4970080;28;8894;-72
2023/03/27 02:48:50;;;;;;;;;5.80;5.00;;;;;13.59;37.38;97444.44;4884735;28;8911;-70
2023/03/27 02:51:23;;;;;;;;;7.60;7.00;;;;;13.58;37.52;97449.81;4931096;28;8861;-74
2023/03/27 02:53:57;;;;;;;;;4.00;4.00;;;;;13.48;37.37;97457.50;4946627;28;8857;-72
2023/03/27 02:56:37;;;;;;;;;7.60;6.60;;;;;13.40;37.65;97451.91;4923838;28;8910;-71
2023/03/27 02:59:13;;;;;;;;;5.20;5.20;;;;;13.44;37.28;97443.69;4946426;28;8849;-71
2023/03/27 03:01:44;;;;;;;;;6.20;5.60;;;;;13.40;37.46;97442.19;4949397;28;8883;-71
2023/03/27 03:04:45;;;;;;;;;5.00;5.00;;;;;13.35;37.60;97436.38;4850894;29;8868;-72
2023/03/27 03:07:21;;;;;;;;;6.40;6.20;;;;;13.35;37.43;97423.16;4874388;29;9013;-71
2023/03/27 03:09:50;;;;;;;;;6.00;6.00;;;;;13.30;37.72;97425.28;4858806;29;8883;-71
2023/03/27 03:12:20;;;;;;;;;6.20;6.20;;;;;13.27;37.89;97415.75;4857968;29;8876;-71
2023/03/27 03:14:50;;;;;;;;;5.80;5.40;;;;;13.27;37.75;97401.72;4880210;29;8864;-70
2023/03/27 03:17:19;;;;;;;;;5.60;5.60;;;;;13.04;38.37;97390.06;4930870;29;8860;-74
2023/03/27 03:19:48;;;;;;;;;5.20;5.00;;;;;12.96;38.35;97379.16;4956155;28;9642;-72
2023/03/27 03:22:17;;;;;;;;;20.40;15.20;;;;;12.86;38.72;97381.56;4989366;28;8858;-71
2023/03/27 03:24:46;;;;;;;;;7.80;7.80;;;;;12.88;38.59;97395.47;4974915;28;8885;-74
2023/03/27 03:27:19;;;;;;;;;6.00;6.00;;;;;12.82;39.13;97390.56;4974033;28;8850;-71
2023/03/27 03:30:03;;;;;;;;;8.00;7.20;;;;;12.86;38.94;97374.50;4959637;28;9042;-70
2023/03/27 03:32:38;;;;;;;;;8.00;8.00;;;;;12.91;38.92;97384.75;4954202;28;9054;-72
2023/03/27 03:35:08;;;;;;;;;9.00;8.80;;;;;12.96;39.00;97387.06;4957137;28;9594;-70
2023/03/27 03:37:38;;;;;;;;;6.80;6.80;;;;;13.01;39.22;97384.97;4972425;28;8884;-72
2023/03/27 03:40:11;;;;;;;;;7.00;6.80;;;;;13.06;39.02;97375.81;4950489;28;8850;-74
2023/03/27 03:42:45;;;;;;;;;6.60;5.60;;;;;13.05;38.93;97373.28;5026738;28;8940;-70
2023/03/27 03:45:16;;;;;;;;;9.00;9.00;;;;;13.07;38.80;97371.38;5037012;28;9664;-70
2023/03/27 03:47:46;;;;;;;;;7.00;7.00;;;;;13.04;37.77;97371.59;5014807;28;8885;-70
2023/03/27 03:50:15;;;;;;;;;6.80;6.40;;;;;12.87;36.16;97356.88;5011718;28;8874;-72
2023/03/27 03:52:44;;;;;;;;;9.80;6.60;;;;;12.79;36.56;97359.13;4996817;28;8875;-70
2023/03/27 03:55:14;;;;;;;;;6.00;6.00;;;;;12.80;36.58;97359.03;5011738;28;8916;-69
2023/03/27 03:57:46;;;;;;;;;4.80;4.80;;;;;12.79;36.03;97364.41;5015749;28;8866;-71
2023/03/27 04:00:24;;;;;;;;;4.00;4.00;;;;;12.74;35.21;97351.53;5010282;28;8961;-71
2023/03/27 04:02:55;;;;;;;;;5.40;5.40;;;;;12.78;35.38;97353.03;4990406;28;8921;-72
2023/03/27 04:05:25;;;;;;;;;4.20;3.80;;;;;12.92;34.99;97353.00;4999866;28;8869;-71
2023/03/27 04:07:58;;;;;;;;;4.00;4.00;;;;;12.74;33.67;97349.72;5018450;28;8867;-73
2023/03/27 04:10:31;;;;;;;;;7.20;7.20;;;;;12.74;33.60;97352.38;4989047;28;8854;-75
2023/03/27 04:13:03;;;;;;;;;4.00;4.00;;;;;12.72;33.19;97356.91;5046165;28;8861;-73
2023/03/27 04:15:40;;;;;;;;;5.60;4.20;;;;;12.74;32.93;97349.72;5049198;28;8914;-76
2023/03/27 04:18:31;;;;;;;;;4.00;4.00;;;;;12.73;32.20;97360.38;5035637;28;8852;-70
2023/03/27 04:21:02;;;;;;;;;4.00;4.00;;;;;12.57;33.01;97354.41;5031345;28;8859;-72
2023/03/27 04:23:32;;;;;;;;;5.80;5.00;;;;;12.69;32.93;97367.66;5082528;28;8872;-72
2023/03/27 04:26:02;;;;;;;;;5.00;4.00;;;;;12.65;33.05;97370.56;5048985;28;8844;-71
2023/03/27 04:29:09;;;;;;;;;5.40;5.00;;;;;12.84;32.86;97384.28;5005926;28;9742;-76
2023/03/27 04:32:11;;;;;;;;;11.60;8.80;;;;;13.06;32.38;97404.84;4942428;28;8897;-74
2023/03/27 04:34:40;;;;;;;;;11.80;10.20;;;;;13.14;32.05;97433.34;4966406;28;8897;-74
2023/03/27 04:37:32;;;;;;;;;9.20;8.00;;;;;12.96;33.12;97469.69;4926108;29;9021;-74
2023/03/27 04:40:13;;;;;;;;;7.40;6.60;;;;;11.59;35.48;97599.00;4924809;29;8891;-75
2023/03/27 04:42:43;;;;;;;;;9.00;6.20;;;;;10.23;53.17;97659.63;4919850;29;8875;-70
2023/03/27 04:45:15;;;;;;;;;4.20;4.20;;;;;8.37;63.91;97711.72;4917848;29;9009;-75
2023/03/27 04:47:49;;;;;;;;;5.00;5.00;;;;;6.55;76.74;97720.25;4919035;29;8912;-76
2023/03/27 04:50:18;;;;;;;;;5.80;5.80;;;;;6.31;80.58;97707.09;4918677;28;9087;-77
2023/03/27 04:52:48;;;;;;;;;6.00;6.00;;;;;6.62;81.11;97726.09;4956834;28;8872;-76
2023/03/27 04:55:21;;;;;;;;;3.40;3.40;;;;;6.35;81.60;97702.63;4941157;28;8938;-79
2023/03/27 04:57:50;;;;;;;;;4.80;4.80;;;;;5.93;83.04;97721.38;4938923;28;8829;-75
2023/03/27 05:00:22;;;;;;;;;1.00;1.00;;;;;6.46;82.58;97723.16;4956562;28;8852;-78
2023/03/27 05:03:12;;;;;;;;;7.00;7.00;;;;;6.57;82.29;97721.03;4967341;28;8907;-78
2023/03/27 05:05:55;;;;;;;;;5.00;3.40;;;;;6.10;83.12;97721.69;4942403;28;8872;-80
2023/03/27 05:08:25;;;;;;;;;6.20;6.20;;;;;6.77;82.53;97709.03;4979172;28;8869;-77
2023/03/27 05:10:56;;;;;;;;;6.00;3.40;;;;;6.52;82.40;97713.34;4961458;28;8857;-80
2023/03/27 05:13:27;;;;;;;;;5.80;4.60;;;;;6.64;82.60;97699.00;5008665;28;8878;-77
2023/03/27 05:15:57;;;;;;;;;5.00;5.00;;;;;6.89;81.29;97693.84;5049891;28;9569;-78
2023/03/27 05:18:29;;;;;;;;;7.00;5.00;;;;;7.17;81.25;97682.34;5019423;28;9620;-78
2023/03/27 05:20:59;;;;;;;;;5.60;5.00;;;;;7.31;80.38;97660.13;5052543;28;9721;-79
2023/03/27 05:23:28;;;;;;;;;4.20;3.80;;;;;7.44;77.88;97662.19;5070432;28;8902;-77
2023/03/27 05:25:57;;;;;;;;;5.60;5.60;;;;;7.56;78.97;97660.84;5072028;28;8878;-77
2023/03/27 05:28:42;;;;;;;;;3.40;3.40;;;;;7.94;78.37;97648.00;5069760;28;8855;-78
2023/03/27 05:31:12;;;;;;;;;6.20;6.00;;;;;8.21;78.08;97629.47;5086478;28;8874;-78
2023/03/27 05:34:18;;;;;;;;;5.80;5.80;;;;;8.40;77.57;97600.75;5069123;28;8948;-76
2023/03/27 05:36:48;;;;;;;;;8.00;7.40;;;;;8.44;77.66;97587.50;5069277;28;8871;-77
2023/03/27 05:39:18;;;;;;;;;4.20;4.20;;;;;8.61;77.40;97562.31;5068737;28;8894;-78
2023/03/27 05:41:48;;;;;;;;;2.00;2.00;;;;;8.82;77.08;97555.28;5098351;28;8931;-79
2023/03/27 05:44:24;;;;;;;;;9.00;7.60;;;;;8.93;76.36;97545.16;5076625;28;8877;-77
2023/03/27 05:46:53;;;;;;;;;12.00;10.60;;;;;8.93;76.42;97537.28;5078593;28;10092;-78
2023/03/27 05:49:30;;;;;;;;;7.80;7.40;;;;;8.95;76.08;97458.56;5070132;28;8894;-78
2023/03/27 05:52:09;;;;;;;;;6.00;5.20;;;;;9.03;75.25;97431.09;5070278;28;8857;-78
2023/03/27 05:54:38;;;;;;;;;13.00;11.20;;;;;9.00;75.04;97439.09;5086629;28;8873;-78
2023/03/27 05:57:11;;;;;;;;;13.20;13.20;;;;;8.50;74.54;97463.31;5086573;28;8850;-79
2023/03/27 05:59:41;;;;;;;;;3.20;3.00;;;;;8.42;74.62;97452.31;5086629;28;8841;-80
2023/03/27 06:02:22;;;;;;;;;2.00;2.00;;;;;8.34;74.26;97449.22;5069971;28;8853;-78
2023/03/27 06:05:00;;;;;;;;;4.00;4.00;;;;;8.24;74.03;97457.44;5053893;28;8845;-77
2023/03/27 06:07:34;;;;;;;;;4.20;4.20;;;;;8.13;74.68;97448.38;5069996;28;8861;-77
2023/03/27 06:10:07;;;;;;;;;5.60;4.80;;;;;8.41;74.69;97456.72;5070444;28;8875;-78
2023/03/27 06:13:13;;;;;;;;;7.20;7.20;;;;;8.58;74.43;97474.25;5032130;28;8933;-77
2023/03/27 06:16:07;;;;;;;;;6.20;6.20;;;;;8.36;72.27;97482.25;5082513;28;8858;-79
2023/03/27 06:19:06;;;;;;;;;3.60;3.40;;;;;8.12;71.73;97489.41;5048885;28;8858;-77
2023/03/27 06:21:41;;;;;;;;;4.00;4.00;;;;;7.95;73.04;97499.72;5017202;28;9079;-75
2023/03/27 06:24:10;;;;;;;;;10.60;10.60;;;;;8.00;73.16;97495.16;5012471;28;8854;-76
2023/03/27 06:26:41;;;;;;;;;6.00;6.00;;;;;7.85;73.07;97497.53;5075140;28;8869;-74
2023/03/27 06:29:10;;;;;;;;;6.00;6.00;;;;;7.88;71.92;97499.16;5047227;28;8880;-76
2023/03/27 06:31:49;;;;;;;;;5.00;5.00;;;;;7.81;73.97;97492.47;5066337;28;8878;-76
2023/03/27 06:34:30;;;;;;;;;7.00;5.60;;;;;7.86;73.69;97496.59;5065898;28;8874;-76
2023/03/27 06:37:23;;;;;;;;;6.00;6.00;;;;;8.01;72.89;97489.03;5067994;28;8872;-74
2023/03/27 06:39:53;;;;;;;;;6.20;3.00;;;;;8.04;73.61;97483.63;5051476;28;8975;-73
2023/03/27 06:42:23;;;;;;;;;6.60;4.80;;;;;8.26;72.89;97484.38;5062272;28;9697;-75
2023/03/27 06:44:59;;;;;;;;;6.00;5.80;;;;;8.23;71.83;97487.16;5053678;28;8861;-76
2023/03/27 06:47:51;;;;;;;;;9.20;9.20;;;;;8.35;71.32;97485.78;5088698;28;8894;-75
2023/03/27 06:50:38;;;;;;;;;6.20;6.00;;;;;8.66;71.83;97500.09;5072281;28;8871;-75
2023/03/27 06:53:08;;;;;;;;;4.60;4.60;;;;;8.67;71.91;97498.31;5089675;28;8858;-74
2023/03/27 06:55:53;;;;;;;;;11.40;11.00;;;;;8.56;71.31;97494.44;5089444;28;8855;-74
2023/03/27 06:58:24;;;;;;;;;7.20;6.00;;;;;8.73;70.30;97495.44;5072419;28;8851;-74
2023/03/27 07:00:54;;;;;;;;;8.80;8.40;;;;;8.82;70.04;97508.13;5072805;28;8982;-74
2023/03/27 07:03:24;;;;;;;;;7.80;6.40;;;;;8.87;69.91;97505.25;5089328;28;8973;-74
2023/03/27 07:06:19;;;;;;;;;4.00;4.00;;;;;8.99;69.60;97499.47;5028155;28;8963;-73
2023/03/27 07:08:55;;;;;;;;;9.60;8.00;;;;;8.94;68.57;97496.19;5011558;28;8880;-75
2023/03/27 07:11:24;;;;;;;;;11.80;11.80;;;;;8.90;68.90;97492.03;5011694;28;8846;-73
2023/03/27 07:13:59;;;;;;;;;8.80;8.40;;;;;9.23;69.12;97487.81;4982021;28;8915;-74
2023/03/27 07:16:30;;;;;;;;;15.00;13.00;;;;;9.12;69.53;97486.59;5007301;28;8979;-76
2023/03/27 07:19:01;;;;;;;;;5.60;3.80;;;;;9.43;68.04;97480.72;5010180;28;9026;-74
2023/03/27 07:21:33;;;;;;;;;11.20;11.20;;;;;9.14;68.37;97484.75;5007716;28;8853;-76
2023/03/27 07:24:04;;;;;;;;;9.00;8.00;;;;;9.11;67.87;97490.16;5009660;28;8879;-73
2023/03/27 07:26:34;;;;;;;;;11.20;8.00;;;;;9.35;67.93;97494.22;5007490;28;8841;-75
2023/03/27 07:29:24;;;;;;;;;7.20;7.20;;;;;9.17;67.24;97488.06;5009730;28;8872;-74
2023/03/27 07:31:56;;;;;;;;;7.20;6.80;;;;;9.57;67.97;97503.66;5002604;28;8855;-75
2023/03/27 07:34:50;;;;;;;;;7.20;6.80;;;;;9.67;67.66;97501.44;5008676;28;8858;-74
2023/03/27 07:37:45;;;;;;;;;12.00;11.60;;;;;9.44;65.93;97503.38;5025409;28;8848;-72
2023/03/27 07:40:42;;;;;;;;;3.00;3.00;;;;;9.73;65.81;97503.75;4961644;28;8881;-74
2023/03/27 07:43:34;;;;;;;;;7.00;6.00;;;;;9.89;64.99;97498.56;4967783;28;8900;-73
2023/03/27 07:46:05;;;;;;;;;8.00;7.00;;;;;9.96;65.91;97499.97;4984038;28;8881;-74
2023/03/27 07:48:34;;;;;;;;;7.00;7.00;;;;;10.13;66.13;97494.69;4964927;28;8941;-73
2023/03/27 07:51:05;;;;;;;;;7.80;6.80;;;;;10.29;64.76;97500.00;4954461;28;8846;-72
2023/03/27 07:53:43;;;;;;;;;7.20;7.20;;;;;10.49;64.66;97498.94;4980031;28;9048;-75
2023/03/27 07:56:23;;;;;;;;;9.60;8.40;;;;;10.75;63.58;97494.09;4967832;28;8861;-73
2023/03/27 07:59:11;;;;;;;;;7.60;4.40;;;;;10.71;62.93;97498.63;4964719;28;8964;-72
2023/03/27 08:01:41;;;;;;;;;7.60;5.00;;;;;10.88;61.90;97489.84;4966253;28;8852;-72
2023/03/27 08:04:10;;;;;;;;;4.60;3.80;;;;;11.02;62.67;97489.06;4950818;28;8988;-73
2023/03/27 08:06:42;;;;;;;;;4.80;4.80;;;;;11.04;60.17;97500.34;4934771;28;8885;-72
2023/03/27 08:09:19;;;;;;;;;5.80;5.00;;;;;11.10;60.38;97510.53;4950305;28;9610;-74
2023/03/27 08:11:50;;;;;;;;;8.20;7.40;;;;;11.03;61.56;97514.44;4966581;28;8851;-73
2023/03/27 08:14:19;;;;;;;;;7.20;7.20;;;;;10.98;60.67;97517.31;4934656;28;8965;-75
2023/03/27 08:16:48;;;;;;;;;7.40;7.40;;;;;11.15;60.03;97526.91;4955254;28;8848;-72
2023/03/27 08:19:20;;;;;;;;;7.40;5.00;;;;;11.14;61.07;97513.84;4972873;28;8990;-75
2023/03/27 08:21:54;;;;;;;;;9.00;9.00;;;;;11.40;60.72;97506.25;5029066;28;8877;-71
2023/03/27 08:24:22;;;;;;;;;10.20;9.20;;;;;11.63;62.04;97507.56;5000777;28;8852;-72
2023/03/27 08:27:13;;;;;;;;;9.00;9.00;;;;;11.87;62.14;97502.69;5065825;28;8891;-75
2023/03/27 08:29:45;;;;;;;;;8.40;8.40;;;;;11.67;61.19;97496.78;5083499;28;8879;-72
2023/03/27 08:32:14;;;;;;;;;6.40;6.20;;;;;12.06;61.07;97492.75;5049598;28;8917;-73
2023/03/27 08:34:44;;;;;;;;;7.20;5.40;;;;;12.41;61.79;97483.63;5029375;28;8850;-75
2023/03/27 08:37:19;;;;;;;;;5.40;5.00;;;;;12.59;61.54;97482.50;5029501;28;8904;-70
2023/03/27 08:40:16;;;;;;;;;4.00;4.00;;;;;12.68;59.57;97468.75;5046289;28;8873;-71
2023/03/27 08:42:53;;;;;;;;;7.00;7.00;;;;;12.18;55.28;97471.88;5029748;28;8942;-71
2023/03/27 08:45:27;;;;;;;;;9.60;8.60;;;;;12.21;56.25;97472.53;5062562;28;8892;-74
2023/03/27 08:48:06;;;;;;;;;7.00;5.20;;;;;12.52;57.26;97483.81;5029080;28;8858;-73
2023/03/27 08:50:41;;;;;;;;;8.80;7.60;;;;;12.72;58.19;97493.13;5009129;28;8893;-73
2023/03/27 08:53:21;;;;;;;;;8.60;5.80;;;;;12.90;58.31;97489.38;4992855;28;9598;-74
2023/03/27 08:55:50;;;;;;;;;8.20;6.00;;;;;12.91;55.66;97479.66;4993093;28;8998;-71
2023/03/27 08:58:31;;;;;;;;;6.60;6.60;;;;;13.03;55.46;97489.41;5026039;28;8895;-72
2023/03/27 09:01:25;;;;;;;;;10.60;9.80;;;;;13.36;58.63;97487.38;5009293;28;8899;-72
2023/03/27 09:04:06;;;;;;;;;7.40;7.40;;;;;13.56;58.02;97484.25;5026139;28;8870;-74
2023/03/27 09:06:50;;;;;;;;;5.80;5.80;;;;;13.92;58.87;97479.28;5009639;28;8872;-71
2023/03/27 09:09:37;;;;;;;;;7.20;7.20;;;;;14.09;56.23;97478.97;4986278;28;8883;-72
2023/03/27 09:12:25;;;;;;;;;4.40;3.60;;;;;14.17;53.76;97481.06;4977733;28;8964;-72
2023/03/27 09:15:01;;;;;;;;;3.00;2.00;;;;;14.27;50.84;97490.91;4989064;28;9592;-74
2023/03/27 09:17:36;;;;;;;;;4.60;4.20;;;;;14.18;52.70;97493.34;5006829;28;8855;-71
2023/03/27 09:20:17;;;;;;;;;4.00;3.80;;;;;14.40;50.23;97500.66;4948079;28;8855;-71
2023/03/27 09:22:53;;;;;;;;;3.00;3.00;;;;;13.30;48.44;97500.00;5009619;28;8996;-75
2023/03/27 09:25:47;;;;;;;;;8.00;6.00;;;;;13.85;53.33;97505.28;5044218;28;8857;-73
2023/03/27 09:28:49;;;;;;;;;3.80;3.80;;;;;14.28;54.36;97507.59;5002951;28;8953;-72
2023/03/27 09:31:27;;;;;;;;;3.60;3.60;;;;;14.43;52.36;97505.72;4987191;28;8914;-74
2023/03/27 09:34:01;;;;;;;;;6.20;6.20;;;;;14.10;46.83;97501.81;4965249;28;8865;-74
2023/03/27 09:36:31;;;;;;;;;6.40;5.20;;;;;14.00;48.18;97512.16;4964983;28;9053;-72
2023/03/27 09:39:06;;;;;;;;;6.00;4.40;;;;;14.16;47.89;97509.31;4933463;28;8965;-72
2023/03/27 09:41:42;;;;;;;;;5.80;3.00;;;;;13.97;48.80;97522.91;4966964;28;8860;-73
2023/03/27 09:44:19;;;;;;;;;2.20;2.20;;;;;14.28;48.59;97520.81;4953025;28;10037;-75
2023/03/27 09:46:56;;;;;;;;;4.60;4.20;;;;;13.83;44.88;97513.28;4969517;28;8868;-74
2023/03/27 09:49:27;;;;;;;;;3.80;3.00;;;;;13.61;46.75;97519.09;4984406;28;8873;-73
2023/03/27 09:51:58;;;;;;;;;3.60;3.60;;;;;12.64;45.74;97516.50;4966502;28;8849;-76
2023/03/27 09:54:55;;;;;;;;;3.60;3.60;;;;;12.70;47.50;97519.59;4984166;28;9615;-74
2023/03/27 09:57:37;;;;;;;;;4.00;3.20;;;;;12.01;50.22;97520.28;4965712;28;8950;-70
2023/03/27 10:00:14;;;;;;;;;4.00;4.00;;;;;12.64;49.13;97513.88;4946471;28;8903;-73
2023/03/27 10:03:00;;;;;;;;;1.60;1.60;;;;;11.79;49.54;97524.19;4923238;28;8860;-74
2023/03/27 10:05:31;;;;;;;;;5.00;5.00;;;;;11.79;50.19;97518.91;4990897;28;8867;-72
2023/03/27 10:08:01;;;;;;;;;3.40;2.00;;;;;11.66;48.45;97529.28;5025942;28;8864;-73
2023/03/27 10:10:56;;;;;;;;;2.00;2.00;;;;;11.62;47.50;97529.56;5044857;28;8857;-73
2023/03/27 10:13:46;;;;;;;;;5.00;5.00;;;;;11.59;51.99;97522.69;5032273;28;8877;-72
2023/03/27 10:16:20;;;;;;;;;4.40;2.40;;;;;11.61;51.24;97512.06;5040227;28;9650;-72
2023/03/27 10:19:05;;;;;;;;;2.00;2.00;;;;;11.29;50.16;97515.59;5021774;28;8942;-72
2023/03/27 10:21:44;;;;;;;;;4.00;3.80;;;;;11.15;51.63;97508.50;5049814;28;8845;-71
2023/03/27 10:24:26;;;;;;;;;3.00;3.00;;;;;11.33;52.68;97511.88;5050157;28;8907;-72
2023/03/27 10:27:20;;;;;;;;;3.80;3.60;;;;;11.41;52.42;97510.56;5033488;28;9042;-69
2023/03/27 10:30:26;;;;;;;;;3.00;3.00;;;;;10.91;55.10;97523.84;5049913;28;8853;-71
2023/03/27 10:33:01;;;;;;;;;5.00;4.00;;;;;10.87;56.48;97530.19;5017868;28;8865;-71
2023/03/27 10:35:43;;;;;;;;;10.00;10.00;;;;;9.57;63.11;97570.09;5051947;28;8869;-70
2023/03/27 10:38:43;;;;;;;;;13.80;12.40;;;;;8.59;79.99;97583.34;5048609;28;8878;-79
2023/03/27 10:41:29;;;;;;;;;13.60;12.00;;;;;7.93;79.21;97611.44;5032482;28;8850;-76
2023/03/27 10:44:00;;;;;;;;;5.80;3.60;;;;;7.12;77.25;97624.22;5032500;28;8854;-78
2023/03/27 10:46:30;;;;;;;;;4.00;3.40;;;;;7.11;79.32;97613.81;5032418;28;8858;-75
2023/03/27 10:49:23;;;;;;;;;8.40;7.20;;;;;7.16;81.13;97633.63;5014983;28;9058;-73
2023/03/27 10:52:03;;;;;;;;;5.80;5.60;;;;;7.29;81.36;97642.72;4992140;28;8855;-75
2023/03/27 10:54:53;;;;;;;;;6.60;6.00;;;;;7.20;81.70;97645.66;4992231;28;8973;-74
2023/03/27 10:57:26;;;;;;;;;6.20;6.20;;;;;7.13;81.67;97653.81;4988589;28;9039;-75
2023/03/27 11:00:00;;;;;;;;;7.00;7.00;;;;;7.29;82.65;97652.31;4946956;29;8833;-69
2023/03/27 11:02:48;;;;;;;;;10.20;10.20;;;;;7.79;82.29;97653.88;4931017;29;8920;-68
2023/03/27 11:05:23;;;;;;;;;11.40;11.00;;;;;7.50;83.11;97655.03;4946762;29;8959;-70
2023/03/27 11:08:00;;;;;;;;;17.60;17.20;;;;;7.78;82.26;97653.03;4949681;28;8893;-69
2023/03/27 11:10:34;;;;;;;;;11.80;11.60;;;;;7.92;81.67;97664.69;4933699;28;8897;-69
2023/03/27 11:13:11;;;;;;;;;17.80;15.80;;;;;8.03;82.75;97667.72;4918036;28;8843;-68
2023/03/27 11:15:43;;;;;;;;;17.00;17.00;;;;;7.66;82.87;97675.28;4945886;28;8867;-70
2023/03/27 11:18:45;;;;;;;;;17.00;16.00;;;;;7.37;83.02;97689.47;4969108;28;8874;-71
2023/03/27 11:21:22;;;;;;;;;10.80;9.20;;;;;6.38;82.30;97672.97;4906766;28;8874;-70
2023/03/27 11:24:13;;;;;;;;;7.20;6.00;;;;;6.15;82.39;97692.84;4952082;28;8881;-70
2023/03/27 11:27:00;;;;;;;;;10.40;9.80;;;;;6.28;81.93;97691.53;4952598;28;8882;-70
2023/03/27 11:29:35;;;;;;;;;16.40;15.00;;;;;6.21;81.85;97697.88;4918718;28;8916;-71
2023/03/27 11:32:13;;;;;;;;;11.40;11.40;;;;;6.73;82.52;97712.69;4946124;29;8965;-72
2023/03/27 11:34:56;;;;;;;;;12.20;11.00;;;;;7.02;81.84;97709.94;4946065;29;9032;-74
2023/03/27 11:37:44;;;;;;;;;13.20;12.60;;;;;6.96;80.67;97709.28;4939459;28;8978;-74
2023/03/27 11:40:22;;;;;;;;;7.00;7.00;;;;;6.70;76.44;97719.72;4981704;28;8851;-72
2023/03/27 11:42:58;;;;;;;;;11.20;10.60;;;;;6.62;77.92;97723.47;4965204;28;8871;-71
2023/03/27 11:45:37;;;;;;;;;9.20;9.20;;;;;6.69;78.52;97717.16;5017573;28;8870;-70
2023/03/27 11:48:19;;;;;;;;;11.00;10.00;;;;;6.96;77.15;97719.72;5024294;28;9699;-73
2023/03/27 11:50:56;;;;;;;;;8.00;8.00;;;;;7.15;75.48;97728.59;5024776;28;8855;-70
2023/03/27 11:53:58;;;;;;;;;8.00;8.00;;;;;7.15;72.26;97723.38;5023944;28;8883;-74
2023/03/27 11:56:53;;;;;;;;;3.00;3.00;;;;;6.29;72.41;97726.31;5061401;28;8878;-72
2023/03/27 11:59:56;;;;;;;;;6.20;6.20;;;;;6.65;74.47;97716.41;5033570;28;8973;-71
2023/03/27 12:02:48;;;;;;;;;3.00;3.00;;;;;6.29;72.71;97750.66;5050366;28;8920;-71
2023/03/27 12:05:41;;;;;;;;;5.80;4.20;;;;;6.18;72.84;97736.25;5050570;28;9650;-71
2023/03/27 12:08:23;;;;;;;;;4.00;3.80;;;;;6.43;72.97;97741.53;5033755;28;8872;-70
2023/03/27 12:10:58;;;;;;;;;11.00;11.00;;;;;6.51;72.92;97750.81;5050128;28;8960;-69
2023/03/27 12:13:57;;;;;;;;;6.40;6.40;;;;;6.30;71.73;97751.50;5001851;28;8848;-70
2023/03/27 12:17:12;;;;;;;;;9.40;7.40;;;;;6.70;71.92;97745.81;5033156;28;8882;-73
2023/03/27 12:20:31;;;;;;;;;13.00;9.00;;;;;6.64;70.48;97747.78;5032806;28;9017;-75
2023/03/27 12:23:25;;;;;;;;;7.00;4.60;;;;;6.57;70.89;97746.28;5005903;28;8883;-72
2023/03/27 12:26:41;;;;;;;;;7.00;7.00;;;;;7.07;71.27;97747.16;4929710;29;10009;-77
2023/03/27 12:29:41;;;;;;;;;5.00;5.00;;;;;7.35;70.54;97761.84;4929576;29;9001;-74
2023/03/27 12:32:23;;;;;;;;;7.00;6.00;;;;;6.58;70.76;97771.47;4929209;29;8883;-73
2023/03/27 12:34:57;;;;;;;;;7.00;7.00;;;;;6.23;71.22;97770.88;4928639;29;8974;-74
2023/03/27 12:37:42;;;;;;;;;6.20;5.60;;;;;5.88;72.35;97772.81;4928930;29;8892;-73
2023/03/27 12:40:27;;;;;;;;;3.00;2.00;;;;;6.21;72.30;97783.09;4928830;29;8891;-74